| time (UTC) | temp F | wind direction | speed MPH | gust MPH | rain 1hr in | rain 24hr in | rain mn in | humidity % | barometer mb |
| 20260506202655 | 75 | 1 | 3.0 | 6.0 | 0.00 | 0.00 | 0.00 | 55 | 1017.7 |
| 20260506202151 | 75 | 352 | 4.0 | 4.0 | 0.00 | 0.00 | 0.00 | 55 | 1017.9 |
| 20260506201648 | 74 | 356 | 1.0 | 1.0 | 0.00 | 0.00 | 0.00 | 58 | 1017.9 |
| 20260506201144 | 73 | 161 | 1.0 | 1.0 | 0.00 | 0.00 | 0.00 | 58 | 1017.8 |
| 20260506200641 | 73 | 162 | 2.0 | 3.0 | 0.00 | 0.00 | 0.00 | 59 | 1018.0 |
| 20260506200138 | 74 | 293 | 2.0 | 2.0 | 0.00 | 0.00 | 0.00 | 57 | 1017.9 |
| 20260506195635 | 74 | 332 | 0.0 | 0.0 | 0.00 | 0.00 | 0.00 | 57 | 1018.0 |
| 20260506195131 | 73 | 359 | 0.0 | 1.0 | 0.00 | 0.00 | 0.00 | 59 | 1018.3 |
| 20260506194629 | 73 | 177 | 0.0 | 0.0 | 0.00 | 0.00 | 0.00 | 61 | 1018.2 |
| 20260506194124 | 72 | 99 | 1.0 | 1.0 | 0.00 | 0.00 | 0.00 | 63 | 1018.3 |
| 20260506193623 | 73 | 5 | 0.0 | 0.0 | 0.00 | 0.00 | 0.00 | 62 | 1018.2 |
| 20260506193119 | 73 | 4 | 3.0 | 4.0 | 0.00 | 0.00 | 0.00 | 59 | 1018.6 |
| 20260506192616 | 72 | 115 | 0.0 | 0.0 | 0.00 | 0.00 | 0.00 | 64 | 1018.6 |
| 20260506192112 | 71 | 349 | 1.0 | 1.0 | 0.00 | 0.00 | 0.00 | 63 | 1018.5 |
| 20260506191609 | 71 | 356 | 3.0 | 6.0 | 0.00 | 0.00 | 0.00 | 61 | 1018.8 |
| 20260506191105 | 71 | 356 | 0.0 | 0.0 | 0.00 | 0.00 | 0.00 | 65 | 1018.7 |
| 20260506190602 | 72 | 281 | 2.0 | 3.0 | 0.00 | 0.00 | 0.00 | 59 | 1018.8 |
| 20260506190059 | 73 | 352 | 0.0 | 1.0 | 0.00 | 0.00 | 0.00 | 63 | 1018.6 |
| 20260506185556 | 72 | 21 | 0.0 | 1.0 | 0.00 | 0.00 | 0.00 | 61 | 1018.6 |
| 20260506185053 | 73 | 284 | 2.0 | 3.0 | 0.00 | 0.00 | 0.00 | 61 | 1018.7 |
| 20260506184550 | 72 | 9 | 0.0 | 0.0 | 0.00 | 0.00 | 0.00 | 63 | 1018.7 |
| 20260506184047 | 73 | 119 | 0.0 | 0.0 | 0.00 | 0.00 | 0.00 | 66 | 1018.7 |
| 20260506183543 | 72 | 189 | 1.0 | 1.0 | 0.00 | 0.00 | 0.00 | 67 | 1018.7 |
| 20260506183040 | 75 | 324 | 1.0 | 1.0 | 0.00 | 0.00 | 0.00 | 63 | 1018.7 |
| 20260506182537 | 74 | 345 | 0.0 | 0.0 | 0.00 | 0.00 | 0.00 | 64 | 1018.9 |
| 20260506182035 | 73 | 105 | 0.0 | 0.0 | 0.00 | 0.00 | 0.00 | 66 | 1018.7 |
| 20260506181533 | 72 | 317 | 2.0 | 2.0 | 0.00 | 0.00 | 0.00 | 67 | 1018.8 |
| 20260506181029 | 70 | 192 | 1.0 | 2.0 | 0.00 | 0.00 | 0.00 | 71 | 1018.8 |
| 20260506180525 | 70 | 100 | 0.0 | 0.0 | 0.00 | 0.00 | 0.00 | 71 | 1018.9 |
| 20260506180022 | 69 | 183 | 0.0 | 0.0 | 0.00 | 0.00 | 0.00 | 72 | 1018.9 |
| 20260506175519 | 69 | 353 | 0.0 | 0.0 | 0.00 | 0.00 | 0.00 | 71 | 1018.9 |
| 20260506175015 | 70 | 354 | 1.0 | 1.0 | 0.00 | 0.00 | 0.00 | 72 | 1018.8 |
| 20260506174514 | 70 | 336 | 0.0 | 1.0 | 0.00 | 0.00 | 0.00 | 70 | 1019.2 |
| 20260506174009 | 69 | 333 | 0.0 | 1.0 | 0.00 | 0.00 | 0.00 | 71 | 1019.1 |
| 20260506173508 | 68 | 327 | 1.0 | 1.0 | 0.00 | 0.00 | 0.00 | 72 | 1019.1 |
| 20260506173004 | 68 | 243 | 0.0 | 0.0 | 0.00 | 0.00 | 0.00 | 74 | 1018.8 |
| 20260506172502 | 67 | 326 | 0.0 | 0.0 | 0.00 | 0.00 | 0.00 | 74 | 1019.0 |
| 20260506171957 | 66 | 340 | 2.0 | 2.0 | 0.00 | 0.00 | 0.00 | 75 | 1018.8 |
| 20260506171455 | 67 | 340 | 1.0 | 1.0 | 0.00 | 0.00 | 0.00 | 75 | 1018.7 |
| 20260506170953 | 67 | 340 | 0.0 | 0.0 | 0.00 | 0.00 | 0.00 | 75 | 1018.8 |
| 20260506170449 | 66 | 340 | 0.0 | 0.0 | 0.00 | 0.00 | 0.00 | 75 | 1018.8 |
| 20260506165948 | 66 | 168 | 1.0 | 1.0 | 0.00 | 0.00 | 0.00 | 76 | 1018.9 |
| 20260506165446 | 65 | 168 | 1.0 | 1.0 | 0.00 | 0.00 | 0.00 | 77 | 1018.8 |
| 20260506164942 | 65 | 181 | 0.0 | 0.0 | 0.00 | 0.00 | 0.00 | 76 | 1018.9 |
| 20260506164439 | 64 | 160 | 0.0 | 0.0 | 0.00 | 0.00 | 0.00 | 77 | 1018.8 |
| 20260506163936 | 64 | 196 | 0.0 | 0.0 | 0.00 | 0.00 | 0.00 | 78 | 1018.9 |
| 20260506163431 | 64 | 158 | 0.0 | 0.0 | 0.00 | 0.00 | 0.00 | 79 | 1018.7 |
| 20260506162926 | 63 | 160 | 0.0 | 1.0 | 0.00 | 0.00 | 0.00 | 79 | 1018.7 |
| 20260506162424 | 62 | 156 | 0.0 | 1.0 | 0.00 | 0.00 | 0.00 | 80 | 1018.8 |
| 20260506161916 | 62 | 160 | 0.0 | 0.0 | 0.00 | 0.00 | 0.00 | 81 | 1018.6 |
| 20260506161414 | 62 | 185 | 1.0 | 1.0 | 0.00 | 0.00 | 0.00 | 80 | 1018.7 |
| 20260506160911 | 62 | 136 | 1.0 | 2.0 | 0.00 | 0.00 | 0.00 | 80 | 1018.7 |
| 20260506160408 | 62 | 167 | 2.0 | 2.0 | 0.00 | 0.00 | 0.00 | 81 | 1018.8 |
| 20260506155906 | 61 | 171 | 2.0 | 2.0 | 0.00 | 0.00 | 0.00 | 81 | 1018.7 |
| 20260506155403 | 61 | 195 | 2.0 | 3.0 | 0.00 | 0.00 | 0.00 | 82 | 1018.9 |
| 20260506153525 | 60 | 195 | 1.0 | 2.0 | 0.00 | 0.00 | 0.00 | 82 | 1018.8 |
| 20260506153022 | 60 | 132 | 0.0 | 0.0 | 0.00 | 0.00 | 0.00 | 83 | 1018.8 |
| 20260506152519 | 60 | 152 | 1.0 | 2.0 | 0.00 | 0.00 | 0.00 | 83 | 1018.8 |
| 20260506152018 | 60 | 186 | 2.0 | 2.0 | 0.00 | 0.00 | 0.00 | 82 | 1018.8 |
| 20260506151515 | 60 | 188 | 1.0 | 1.0 | 0.00 | 0.00 | 0.00 | 83 | 1018.6 |
| 20260506151012 | 60 | 123 | 1.0 | 1.0 | 0.00 | 0.00 | 0.00 | 84 | 1018.6 |
| 20260506150508 | 59 | 200 | 1.0 | 1.0 | 0.00 | 0.00 | 0.00 | 83 | 1018.8 |
| 20260506150005 | 59 | 150 | 2.0 | 2.0 | 0.00 | 0.00 | 0.00 | 84 | 1018.7 |
| 20260506145501 | 60 | 221 | 2.0 | 2.0 | 0.00 | 0.00 | 0.00 | 84 | 1018.5 |
| 20260506144959 | 60 | 221 | 0.0 | 0.0 | 0.00 | 0.00 | 0.00 | 83 | 1018.5 |
| 20260506144455 | 60 | 221 | 0.0 | 0.0 | 0.00 | 0.00 | 0.00 | 83 | 1018.7 |
| 20260506143954 | 59 | 221 | 0.0 | 0.0 | 0.00 | 0.00 | 0.00 | 84 | 1018.5 |
| 20260506143450 | 59 | 221 | 0.0 | 0.0 | 0.00 | 0.00 | 0.00 | 84 | 1018.2 |
| 20260506142949 | 59 | 221 | 0.0 | 0.0 | 0.00 | 0.00 | 0.00 | 85 | 1018.4 |
| 20260506142446 | 58 | 221 | 0.0 | 0.0 | 0.00 | 0.00 | 0.00 | 85 | 1018.2 |
| 20260506141944 | 58 | 221 | 0.0 | 0.0 | 0.00 | 0.00 | 0.00 | 85 | 1018.1 |
| 20260506141442 | 58 | 221 | 0.0 | 0.0 | 0.00 | 0.00 | 0.00 | 86 | 1018.2 |
| 20260506140940 | 58 | 221 | 0.0 | 0.0 | 0.00 | 0.00 | 0.00 | 86 | 1018.2 |
| 20260506140437 | 58 | 221 | 0.0 | 1.0 | 0.00 | 0.00 | 0.00 | 86 | 1018.2 |
| 20260506135933 | 58 | 221 | 0.0 | 0.0 | 0.00 | 0.00 | 0.00 | 87 | 1018.2 |
| 20260506135431 | 57 | 221 | 0.0 | 0.0 | 0.00 | 0.00 | 0.00 | 87 | 1018.3 |
| 20260506134927 | 57 | 221 | 0.0 | 0.0 | 0.00 | 0.00 | 0.00 | 86 | 1018.0 |
| 20260506134423 | 57 | 221 | 0.0 | 0.0 | 0.00 | 0.00 | 0.00 | 87 | 1017.9 |
| 20260506133920 | 57 | 221 | 0.0 | 0.0 | 0.00 | 0.00 | 0.00 | 86 | 1017.8 |
| 20260506133417 | 57 | 221 | 0.0 | 0.0 | 0.00 | 0.00 | 0.00 | 86 | 1017.9 |
| 20260506132913 | 57 | 221 | 0.0 | 0.0 | 0.00 | 0.00 | 0.00 | 86 | 1017.8 |
| 20260506132411 | 57 | 221 | 0.0 | 0.0 | 0.00 | 0.00 | 0.00 | 87 | 1018.0 |
| 20260506131909 | 57 | 221 | 0.0 | 0.0 | 0.00 | 0.00 | 0.00 | 87 | 1017.7 |
| 20260506131404 | 57 | 221 | 0.0 | 0.0 | 0.00 | 0.00 | 0.00 | 87 | 1017.7 |
| 20260506130902 | 57 | 221 | 0.0 | 0.0 | 0.00 | 0.00 | 0.00 | 86 | 1017.7 |
| 20260506130358 | 57 | 221 | 0.0 | 0.0 | 0.00 | 0.00 | 0.00 | 86 | 1017.8 |
| 20260506125856 | 57 | 221 | 0.0 | 0.0 | 0.00 | 0.00 | 0.00 | 85 | 1017.8 |
| 20260506125354 | 57 | 221 | 0.0 | 0.0 | 0.00 | 0.00 | 0.00 | 86 | 1017.7 |
| 20260506124852 | 57 | 221 | 0.0 | 0.0 | 0.00 | 0.00 | 0.00 | 86 | 1017.5 |
| 20260506124349 | 57 | 221 | 0.0 | 0.0 | 0.00 | 0.00 | 0.00 | 85 | 1017.6 |
| 20260506123847 | 57 | 221 | 1.0 | 1.0 | 0.00 | 0.00 | 0.00 | 85 | 1017.4 |
| 20260506123345 | 57 | 221 | 1.0 | 1.0 | 0.00 | 0.00 | 0.00 | 85 | 1017.4 |
| 20260506122842 | 57 | 134 | 1.0 | 1.0 | 0.00 | 0.00 | 0.00 | 85 | 1017.5 |
| 20260506122339 | 57 | 197 | 1.0 | 1.0 | 0.00 | 0.00 | 0.00 | 85 | 1017.6 |
| 20260506121838 | 57 | 200 | 1.0 | 1.0 | 0.00 | 0.00 | 0.00 | 85 | 1017.5 |
| 20260506121334 | 57 | 165 | 0.0 | 1.0 | 0.00 | 0.00 | 0.00 | 84 | 1017.4 |
| 20260506120831 | 57 | 183 | 1.0 | 1.0 | 0.00 | 0.00 | 0.00 | 84 | 1017.5 |
| 20260506120329 | 57 | 177 | 1.0 | 1.0 | 0.00 | 0.00 | 0.00 | 85 | 1017.5 |
| 20260506115826 | 57 | 164 | 1.0 | 2.0 | 0.00 | 0.00 | 0.00 | 85 | 1017.5 |
| 20260506115324 | 57 | 159 | 1.0 | 1.0 | 0.00 | 0.00 | 0.00 | 85 | 1017.5 |
| 20260506114821 | 57 | 159 | 1.0 | 1.0 | 0.00 | 0.00 | 0.00 | 85 | 1017.0 |
| 20260506114319 | 57 | 201 | 0.0 | 0.0 | 0.00 | 0.00 | 0.00 | 85 | 1017.3 |
| 20260506113817 | 57 | 196 | 2.0 | 2.0 | 0.00 | 0.00 | 0.00 | 84 | 1017.2 |
| 20260506113315 | 57 | 148 | 1.0 | 1.0 | 0.00 | 0.00 | 0.00 | 84 | 1017.1 |
| 20260506112811 | 57 | 174 | 2.0 | 2.0 | 0.00 | 0.00 | 0.00 | 84 | 1017.2 |
| 20260506112308 | 57 | 194 | 0.0 | 0.0 | 0.00 | 0.00 | 0.00 | 85 | 1017.3 |
| 20260506111806 | 58 | 194 | 1.0 | 1.0 | 0.00 | 0.00 | 0.00 | 84 | 1017.1 |
| 20260506111304 | 58 | 200 | 0.0 | 0.0 | 0.00 | 0.00 | 0.00 | 84 | 1016.8 |
| 20260506110801 | 58 | 214 | 0.0 | 1.0 | 0.00 | 0.00 | 0.00 | 84 | 1016.9 |
| 20260506110258 | 58 | 214 | 1.0 | 1.0 | 0.00 | 0.00 | 0.00 | 84 | 1016.9 |
| 20260506105754 | 58 | 265 | 1.0 | 1.0 | 0.00 | 0.00 | 0.00 | 84 | 1016.8 |
| 20260506105251 | 58 | 196 | 0.0 | 1.0 | 0.00 | 0.00 | 0.00 | 84 | 1017.0 |
| 20260506104749 | 58 | 179 | 2.0 | 3.0 | 0.00 | 0.00 | 0.00 | 83 | 1017.0 |
| 20260506104246 | 58 | 179 | 2.0 | 2.0 | 0.00 | 0.00 | 0.00 | 83 | 1016.8 |
| 20260506103744 | 58 | 191 | 0.0 | 0.0 | 0.00 | 0.00 | 0.00 | 83 | 1016.5 |
| 20260506103241 | 58 | 187 | 1.0 | 1.0 | 0.00 | 0.00 | 0.00 | 83 | 1016.8 |
| 20260506102738 | 58 | 187 | 1.0 | 2.0 | 0.00 | 0.00 | 0.00 | 82 | 1016.7 |
| 20260506102236 | 58 | 166 | 0.0 | 0.0 | 0.00 | 0.00 | 0.00 | 82 | 1016.6 |
| 20260506101733 | 58 | 162 | 0.0 | 1.0 | 0.00 | 0.00 | 0.00 | 82 | 1016.6 |
| 20260506101229 | 58 | 198 | 1.0 | 1.0 | 0.00 | 0.00 | 0.00 | 82 | 1016.8 |
| 20260506100728 | 58 | 202 | 1.0 | 2.0 | 0.00 | 0.00 | 0.00 | 82 | 1016.4 |
| 20260506100226 | 58 | 202 | 0.0 | 0.0 | 0.00 | 0.00 | 0.00 | 82 | 1016.8 |
| 20260506095724 | 58 | 202 | 1.0 | 2.0 | 0.00 | 0.00 | 0.00 | 82 | 1016.6 |
| 20260506095220 | 58 | 226 | 0.0 | 1.0 | 0.00 | 0.00 | 0.00 | 82 | 1016.5 |
| 20260506094717 | 58 | 192 | 2.0 | 3.0 | 0.00 | 0.00 | 0.00 | 82 | 1016.4 |
| 20260506094215 | 58 | 187 | 0.0 | 1.0 | 0.00 | 0.00 | 0.00 | 82 | 1016.5 |
| 20260506093714 | 59 | 176 | 2.0 | 2.0 | 0.00 | 0.00 | 0.00 | 82 | 1016.7 |
| 20260506093210 | 59 | 202 | 0.0 | 0.0 | 0.00 | 0.00 | 0.00 | 82 | 1016.5 |
| 20260506092708 | 59 | 343 | 1.0 | 1.0 | 0.00 | 0.00 | 0.00 | 81 | 1016.6 |
| 20260506092205 | 59 | 183 | 0.0 | 0.0 | 0.00 | 0.00 | 0.00 | 82 | 1016.7 |
| 20260506091703 | 59 | 183 | 0.0 | 1.0 | 0.00 | 0.00 | 0.00 | 81 | 1016.9 |
| 20260506091200 | 59 | 185 | 1.0 | 1.0 | 0.00 | 0.00 | 0.00 | 81 | 1016.5 |
| 20260506090658 | 59 | 185 | 1.0 | 2.0 | 0.00 | 0.00 | 0.00 | 82 | 1016.7 |
| 20260506090154 | 59 | 257 | 0.0 | 1.0 | 0.00 | 0.00 | 0.00 | 81 | 1016.7 |
| 20260506085651 | 59 | 176 | 0.0 | 0.0 | 0.00 | 0.00 | 0.00 | 82 | 1016.8 |
| 20260506085147 | 59 | 187 | 0.0 | 0.0 | 0.00 | 0.00 | 0.00 | 82 | 1016.6 |
| 20260506084644 | 58 | 192 | 0.0 | 0.0 | 0.00 | 0.00 | 0.00 | 82 | 1016.7 |
| 20260506084141 | 59 | 186 | 0.0 | 1.0 | 0.00 | 0.00 | 0.00 | 82 | 1016.5 |
| 20260506083638 | 58 | 206 | 1.0 | 1.0 | 0.00 | 0.00 | 0.00 | 82 | 1016.6 |
| 20260506083136 | 59 | 206 | 0.0 | 0.0 | 0.00 | 0.00 | 0.00 | 82 | 1016.6 |
| 20260506082632 | 59 | 185 | 1.0 | 1.0 | 0.00 | 0.00 | 0.00 | 82 | 1016.5 |
| 20260506082128 | 59 | 206 | 1.0 | 2.0 | 0.00 | 0.00 | 0.00 | 82 | 1016.5 |
| 20260506081626 | 58 | 202 | 2.0 | 2.0 | 0.00 | 0.00 | 0.00 | 82 | 1016.6 |
| 20260506081124 | 58 | 199 | 1.0 | 1.0 | 0.00 | 0.00 | 0.00 | 82 | 1016.7 |
| 20260506080621 | 58 | 224 | 1.0 | 2.0 | 0.00 | 0.00 | 0.00 | 82 | 1016.5 |
| 20260506080118 | 58 | 203 | 2.0 | 2.0 | 0.00 | 0.00 | 0.00 | 82 | 1016.6 |
| 20260506073101 | 59 | 176 | 0.0 | 0.0 | 0.00 | 0.00 | 0.00 | 80 | 1016.4 |
| 20260506072558 | 59 | 185 | 1.0 | 1.0 | 0.00 | 0.00 | 0.00 | 80 | 1016.2 |
| 20260506072056 | 59 | 189 | 3.0 | 4.0 | 0.00 | 0.00 | 0.00 | 80 | 1016.3 |
| 20260506071554 | 59 | 131 | 2.0 | 3.0 | 0.00 | 0.00 | 0.00 | 80 | 1016.2 |
| 20260506071051 | 59 | 232 | 1.0 | 1.0 | 0.00 | 0.00 | 0.00 | 80 | 1016.0 |
| 20260506070548 | 59 | 164 | 4.0 | 4.0 | 0.00 | 0.00 | 0.00 | 80 | 1016.0 |
| 20260506062022 | 59 | 195 | 2.0 | 3.0 | 0.00 | 0.04 | 0.04 | 80 | 1016.0 |
| 20260506061518 | 59 | 268 | 2.0 | 2.0 | 0.00 | 0.04 | 0.04 | 81 | 1015.7 |
| 20260506061016 | 59 | 190 | 2.0 | 3.0 | 0.00 | 0.04 | 0.04 | 81 | 1015.5 |
| 20260506060514 | 59 | 138 | 4.0 | 6.0 | 0.00 | 0.04 | 0.04 | 81 | 1015.6 |
| 20260506050943 | 59 | 217 | 3.0 | 4.0 | 0.00 | 0.04 | 0.04 | 80 | 1015.2 |
| 20260506050441 | 59 | 184 | 3.0 | 7.0 | 0.00 | 0.04 | 0.04 | 80 | 1014.9 |
| 20260506044931 | 60 | 163 | 4.0 | 6.0 | 0.00 | 0.04 | 0.04 | 80 | 1014.9 |
| 20260506044429 | 60 | 244 | 0.0 | 1.0 | 0.00 | 0.04 | 0.04 | 80 | 1014.9 |
| 20260506043926 | 60 | 206 | 3.0 | 4.0 | 0.00 | 0.04 | 0.04 | 80 | 1014.7 |
| 20260506043423 | 60 | 163 | 3.0 | 4.0 | 0.00 | 0.04 | 0.04 | 80 | 1014.9 |
| 20260506042921 | 60 | 173 | 2.0 | 3.0 | 0.00 | 0.04 | 0.04 | 80 | 1014.6 |
| 20260506042420 | 60 | 187 | 2.0 | 3.0 | 0.00 | 0.04 | 0.04 | 80 | 1014.8 |
| 20260506041918 | 60 | 257 | 2.0 | 3.0 | 0.00 | 0.04 | 0.04 | 80 | 1014.8 |
| 20260506041415 | 60 | 196 | 3.0 | 4.0 | 0.00 | 0.04 | 0.04 | 80 | 1014.8 |
| 20260506040912 | 60 | 188 | 1.0 | 1.0 | 0.00 | 0.04 | 0.04 | 79 | 1014.6 |
| 20260506040409 | 60 | 191 | 4.0 | 7.0 | 0.00 | 0.04 | 0.04 | 79 | 1014.6 |
| 20260506035905 | 60 | 178 | 4.0 | 7.0 | 0.00 | 0.04 | 0.04 | 79 | 1014.5 |
| 20260506035403 | 60 | 205 | 2.0 | 3.0 | 0.00 | 0.04 | 0.04 | 79 | 1014.5 |
| 20260506034900 | 60 | 197 | 2.0 | 3.0 | 0.00 | 0.04 | 0.04 | 78 | 1014.3 |
| 20260506034357 | 60 | 156 | 4.0 | 4.0 | 0.00 | 0.04 | 0.04 | 78 | 1014.4 |
| 20260506033854 | 60 | 194 | 0.0 | 0.0 | 0.00 | 0.04 | 0.04 | 79 | 1014.4 |
| 20260506033351 | 61 | 227 | 2.0 | 2.0 | 0.00 | 0.04 | 0.04 | 78 | 1014.1 |
| 20260506032848 | 61 | 153 | 2.0 | 3.0 | 0.00 | 0.04 | 0.04 | 78 | 1014.2 |
| 20260506032344 | 61 | 229 | 2.0 | 3.0 | 0.00 | 0.04 | 0.04 | 78 | 1014.2 |
| 20260506031841 | 61 | 145 | 2.0 | 2.0 | 0.00 | 0.04 | 0.04 | 78 | 1014.1 |
| 20260506031339 | 61 | 251 | 5.0 | 6.0 | 0.00 | 0.04 | 0.04 | 78 | 1014.1 |
| 20260506030836 | 61 | 204 | 4.0 | 6.0 | 0.00 | 0.04 | 0.04 | 78 | 1014.0 |
| 20260506030334 | 61 | 209 | 3.0 | 4.0 | 0.00 | 0.04 | 0.04 | 78 | 1014.2 |
| 20260506025831 | 61 | 243 | 3.0 | 3.0 | 0.00 | 0.04 | 0.04 | 78 | 1013.9 |
| 20260506025327 | 61 | 233 | 6.0 | 8.0 | 0.00 | 0.04 | 0.04 | 78 | 1013.8 |
| 20260506024824 | 61 | 217 | 3.0 | 6.0 | 0.00 | 0.04 | 0.04 | 78 | 1014.0 |
| 20260506024321 | 62 | 166 | 3.0 | 4.0 | 0.00 | 0.04 | 0.04 | 79 | 1013.6 |
| 20260506023817 | 62 | 189 | 2.0 | 3.0 | 0.00 | 0.04 | 0.04 | 78 | 1013.8 |
| 20260506023314 | 62 | 187 | 4.0 | 6.0 | 0.00 | 0.04 | 0.04 | 78 | 1013.9 |
| 20260506022811 | 62 | 158 | 1.0 | 2.0 | 0.00 | 0.04 | 0.04 | 78 | 1013.7 |
| 20260506022309 | 62 | 184 | 3.0 | 4.0 | 0.00 | 0.04 | 0.04 | 78 | 1013.7 |
| 20260506021807 | 62 | 204 | 4.0 | 6.0 | 0.00 | 0.04 | 0.04 | 78 | 1013.4 |
| 20260506021303 | 62 | 231 | 3.0 | 4.0 | 0.00 | 0.04 | 0.04 | 78 | 1013.3 |
| 20260506020800 | 62 | 218 | 3.0 | 4.0 | 0.00 | 0.04 | 0.04 | 77 | 1013.3 |
| 20260506020258 | 63 | 212 | 3.0 | 6.0 | 0.00 | 0.04 | 0.04 | 77 | 1013.4 |
| 20260506015755 | 63 | 178 | 3.0 | 3.0 | 0.00 | 0.04 | 0.04 | 76 | 1013.6 |
| 20260506015252 | 63 | 172 | 5.0 | 8.0 | 0.00 | 0.04 | 0.04 | 76 | 1013.7 |
| 20260506014749 | 63 | 181 | 3.0 | 4.0 | 0.00 | 0.04 | 0.04 | 76 | 1013.4 |
| 20260506014246 | 63 | 190 | 4.0 | 6.0 | 0.00 | 0.04 | 0.04 | 76 | 1013.5 |
| 20260506013743 | 64 | 204 | 3.0 | 4.0 | 0.00 | 0.04 | 0.04 | 76 | 1013.4 |
| 20260506013240 | 64 | 307 | 3.0 | 3.0 | 0.00 | 0.04 | 0.04 | 76 | 1013.4 |
| 20260506012736 | 64 | 173 | 5.0 | 6.0 | 0.00 | 0.04 | 0.04 | 75 | 1013.4 |
| 20260506012233 | 64 | 155 | 5.0 | 8.0 | 0.00 | 0.04 | 0.04 | 74 | 1013.4 |
| 20260506011731 | 64 | 168 | 3.0 | 4.0 | 0.00 | 0.04 | 0.04 | 74 | 1013.3 |
| 20260506011227 | 65 | 172 | 6.0 | 8.0 | 0.00 | 0.04 | 0.04 | 74 | 1013.3 |
| 20260506010725 | 65 | 198 | 4.0 | 4.0 | 0.00 | 0.04 | 0.04 | 74 | 1013.1 |
| 20260506010222 | 65 | 177 | 3.0 | 6.0 | 0.00 | 0.04 | 0.04 | 74 | 1013.2 |
| 20260506005720 | 65 | 239 | 3.0 | 4.0 | 0.00 | 0.04 | 0.04 | 73 | 1013.2 |
| 20260506005216 | 65 | 136 | 1.0 | 2.0 | 0.00 | 0.04 | 0.04 | 73 | 1013.2 |
| 20260506004712 | 65 | 183 | 3.0 | 4.0 | 0.00 | 0.04 | 0.04 | 72 | 1013.2 |
| 20260506004210 | 66 | 217 | 3.0 | 4.0 | 0.00 | 0.04 | 0.04 | 72 | 1013.2 |
| 20260506003706 | 66 | 181 | 4.0 | 6.0 | 0.00 | 0.04 | 0.04 | 72 | 1013.2 |
| 20260506003202 | 66 | 129 | 2.0 | 3.0 | 0.00 | 0.04 | 0.04 | 72 | 1013.1 |
| 20260506002658 | 66 | 224 | 2.0 | 3.0 | 0.00 | 0.04 | 0.04 | 72 | 1013.0 |
| 20260506002155 | 66 | 187 | 1.0 | 2.0 | 0.00 | 0.04 | 0.04 | 72 | 1013.0 |
| 20260506001650 | 66 | 188 | 4.0 | 6.0 | 0.00 | 0.04 | 0.04 | 72 | 1013.1 |
| 20260506001148 | 66 | 170 | 3.0 | 3.0 | 0.00 | 0.04 | 0.04 | 73 | 1012.8 |
| 20260506000645 | 66 | 171 | 4.0 | 4.0 | 0.00 | 0.04 | 0.04 | 72 | 1013.1 |
| 20260506000142 | 67 | 246 | 3.0 | 4.0 | 0.00 | 0.04 | 0.04 | 71 | 1012.9 |
| 20260505235640 | 66 | 224 | 3.0 | 4.0 | 0.00 | 0.04 | 0.04 | 71 | 1013.0 |
| 20260505235137 | 66 | 178 | 2.0 | 3.0 | 0.00 | 0.04 | 0.04 | 72 | 1013.0 |
| 20260505234634 | 66 | 212 | 2.0 | 2.0 | 0.00 | 0.04 | 0.04 | 71 | 1012.9 |
| 20260505234130 | 66 | 168 | 3.0 | 4.0 | 0.00 | 0.04 | 0.04 | 72 | 1013.1 |
| 20260505233628 | 66 | 233 | 5.0 | 8.0 | 0.00 | 0.04 | 0.04 | 71 | 1013.0 |
| 20260505233126 | 66 | 240 | 4.0 | 6.0 | 0.00 | 0.04 | 0.04 | 71 | 1013.0 |
| 20260505232623 | 66 | 207 | 3.0 | 4.0 | 0.00 | 0.04 | 0.04 | 72 | 1013.0 |
| 20260505232120 | 66 | 287 | 2.0 | 2.0 | 0.00 | 0.04 | 0.04 | 73 | 1013.2 |
| 20260505231617 | 66 | 240 | 4.0 | 6.0 | 0.00 | 0.04 | 0.04 | 73 | 1013.1 |
| 20260505231116 | 65 | 221 | 1.0 | 2.0 | 0.00 | 0.04 | 0.04 | 74 | 1013.2 |
| 20260505230614 | 64 | 238 | 1.0 | 2.0 | 0.00 | 0.04 | 0.04 | 75 | 1013.3 |
| 20260505230110 | 66 | 339 | 4.0 | 7.0 | 0.00 | 0.04 | 0.04 | 73 | 1013.1 |
| 20260505225606 | 65 | 336 | 1.0 | 2.0 | 0.00 | 0.04 | 0.04 | 74 | 1013.1 |
| 20260505225102 | 64 | 166 | 6.0 | 7.0 | 0.00 | 0.04 | 0.04 | 75 | 1013.4 |
| 20260505224559 | 64 | 226 | 4.0 | 6.0 | 0.00 | 0.04 | 0.04 | 76 | 1013.3 |
| 20260505224057 | 64 | 141 | 1.0 | 2.0 | 0.00 | 0.04 | 0.04 | 77 | 1013.4 |
| 20260505223554 | 64 | 164 | 3.0 | 3.0 | 0.00 | 0.04 | 0.04 | 76 | 1013.3 |
| 20260505223049 | 64 | 160 | 3.0 | 3.0 | 0.00 | 0.04 | 0.04 | 76 | 1013.3 |
| 20260505222546 | 64 | 198 | 1.0 | 2.0 | 0.00 | 0.04 | 0.04 | 75 | 1013.5 |
| 20260505222042 | 65 | 177 | 3.0 | 4.0 | 0.00 | 0.04 | 0.04 | 74 | 1013.4 |
| 20260505221539 | 65 | 189 | 2.0 | 3.0 | 0.00 | 0.04 | 0.04 | 74 | 1013.5 |
| 20260505221036 | 65 | 274 | 2.0 | 2.0 | 0.00 | 0.04 | 0.04 | 73 | 1013.5 |
| 20260505220533 | 65 | 152 | 2.0 | 3.0 | 0.00 | 0.04 | 0.04 | 73 | 1013.8 |
| 20260505220031 | 66 | 165 | 3.0 | 3.0 | 0.00 | 0.04 | 0.04 | 73 | 1013.7 |
| 20260505215529 | 67 | 146 | 1.0 | 4.0 | 0.00 | 0.04 | 0.04 | 72 | 1013.6 |
| 20260505215026 | 69 | 204 | 2.0 | 3.0 | 0.00 | 0.04 | 0.04 | 71 | 1013.4 |
| 20260505214524 | 70 | 336 | 1.0 | 2.0 | 0.00 | 0.04 | 0.04 | 67 | 1013.6 |
| 20260505214021 | 69 | 207 | 2.0 | 2.0 | 0.00 | 0.04 | 0.04 | 68 | 1013.6 |
| 20260505213519 | 68 | 166 | 1.0 | 2.0 | 0.00 | 0.04 | 0.04 | 70 | 1013.8 |
| 20260505213015 | 67 | 226 | 2.0 | 3.0 | 0.00 | 0.04 | 0.04 | 73 | 1013.7 |
| 20260505212511 | 66 | 126 | 1.0 | 1.0 | 0.00 | 0.04 | 0.04 | 74 | 1013.9 |
| 20260505212009 | 65 | 194 | 1.0 | 1.0 | 0.00 | 0.04 | 0.04 | 77 | 1013.8 |
| 20260505211506 | 65 | 179 | 1.0 | 1.0 | 0.00 | 0.04 | 0.04 | 75 | 1013.7 |
| 20260505211002 | 64 | 159 | 0.0 | 0.0 | 0.00 | 0.04 | 0.04 | 76 | 1013.9 |
| 20260505210459 | 64 | 175 | 0.0 | 0.0 | 0.00 | 0.04 | 0.04 | 76 | 1014.0 |
| 20260505205955 | 65 | 243 | 1.0 | 2.0 | 0.00 | 0.04 | 0.04 | 75 | 1013.9 |
| 20260505205454 | 65 | 237 | 0.0 | 0.0 | 0.00 | 0.04 | 0.04 | 75 | 1013.9 |
| 20260505204951 | 66 | 271 | 0.0 | 0.0 | 0.00 | 0.04 | 0.04 | 72 | 1014.1 |
| 20260505204449 | 66 | 346 | 1.0 | 1.0 | 0.00 | 0.04 | 0.04 | 72 | 1013.9 |
| 20260505203946 | 66 | 337 | 1.0 | 2.0 | 0.00 | 0.04 | 0.04 | 71 | 1014.0 |
| 20260505203442 | 66 | 5 | 2.0 | 2.0 | 0.00 | 0.04 | 0.04 | 73 | 1014.0 |
| 20260505202938 | 66 | 307 | 0.0 | 0.0 | 0.00 | 0.04 | 0.04 | 74 | 1013.9 |